Terminal Aerodrome Forecast
Issued by NWS

Home | Current Version | Previous Version | Text Only | Print | Product List | Glossary On
Versions: 1 2 3 4 5 6 7 8 9 10 11 12 13 14 15 16 17
000
FTUS45 KLKN 272324
TAFELY
TAF
KELY 272324Z 2800/2824 32015KT P6SM VCSH SCT040 OVC080
      TEMPO 2800/2803 36018G28KT 6SM -SHRASN BKN040
     FM280300 34007KT P6SM SCT060 OVC100
     FM281800 35015G25KT P6SM SCT100 BKN200
      AMD NOT SKED=

USA.gov is the U.S. government's official web portal to all federal, state and local government web resources and services.